Map

Track Data

SID SEASON NUMBER BASIN SUBBASIN NAME ISO_TIME NATURE LAT LON WMO_WIND WMO_PRES WMO_AGENCY TRACK_TYPE DIST2LAND LANDFALL IFLAG USA_AGENCY USA_ATCF_ID USA_LAT USA_LON USA_RECORD USA_STATUS USA_WIND USA_PRES USA_SSHS USA_R34_NE USA_R34_SE USA_R34_SW USA_R34_NW USA_R50_NE USA_R50_SE USA_R50_SW USA_R50_NW USA_R64_NE USA_R64_SE USA_R64_SW USA_R64_NW USA_POCI USA_ROCI USA_RMW USA_EYE TOKYO_LAT TOKYO_LON TOKYO_GRADE TOKYO_WIND TOKYO_PRES TOKYO_R50_DIR TOKYO_R50_LONG TOKYO_R50_SHORT TOKYO_R30_DIR TOKYO_R30_LONG TOKYO_R30_SHORT TOKYO_LAND CMA_LAT CMA_LON CMA_CAT CMA_WIND CMA_PRES HKO_LAT HKO_LON HKO_CAT HKO_WIND HKO_PRES NEWDELHI_LAT NEWDELHI_LON NEWDELHI_GRADE NEWDELHI_WIND NEWDELHI_PRES NEWDELHI_CI NEWDELHI_DP NEWDELHI_POCI REUNION_LAT REUNION_LON REUNION_TYPE REUNION_WIND REUNION_PRES REUNION_TNUM REUNION_CI REUNION_RMW REUNION_R34_NE REUNION_R34_SE REUNION_R34_SW REUNION_R34_NW REUNION_R50_NE REUNION_R50_SE REUNION_R50_SW REUNION_R50_NW REUNION_R64_NE REUNION_R64_SE REUNION_R64_SW REUNION_R64_NW BOM_LAT BOM_LON BOM_TYPE BOM_WIND BOM_PRES BOM_TNUM BOM_CI BOM_RMW BOM_R34_NE BOM_R34_SE BOM_R34_SW BOM_R34_NW BOM_R50_NE BOM_R50_SE BOM_R50_SW BOM_R50_NW BOM_R64_NE BOM_R64_SE BOM_R64_SW BOM_R64_NW BOM_ROCI BOM_POCI BOM_EYE BOM_POS_METHOD BOM_PRES_METHOD NADI_LAT NADI_LON NADI_CAT NADI_WIND NADI_PRES WELLINGTON_LAT WELLINGTON_LON WELLINGTON_WIND WELLINGTON_PRES DS824_LAT DS824_LON DS824_STAGE DS824_WIND DS824_PRES TD9636_LAT TD9636_LON TD9636_STAGE TD9636_WIND TD9636_PRES TD9635_LAT TD9635_LON TD9635_WIND TD9635_PRES TD9635_ROCI NEUMANN_LAT NEUMANN_LON NEUMANN_CLASS NEUMANN_WIND NEUMANN_PRES MLC_LAT MLC_LON MLC_CLASS MLC_WIND MLC_PRES USA_GUST BOM_GUST BOM_GUST_PER REUNION_GUST REUNION_GUST_PER USA_SEAHGT USA_SEARAD_NE USA_SEARAD_SE USA_SEARAD_SW USA_SEARAD_NW STORM_SPEED STORM_DIR
1956222N13313 1956 71 NA NA BETSY 1956-08-09 06:00:00 TS 13.5000 -47.2000 50 hurdat_atl main 1102 1067 O_____________ hurdat_atl AL031956 13.5000 -47.2000 TS 50 0 16 277
1956222N13313 1956 71 NA NA BETSY 1956-08-09 09:00:00 TS 13.5981 -48.0199 main 1067 1038 P_____________ AL031956 13.5981 -48.0199 TS 52 0 16 277
1956222N13313 1956 71 NA NA BETSY 1956-08-09 12:00:00 TS 13.7000 -48.8000 55 hurdat_atl main 1038 1018 O_____________ hurdat_atl AL031956 13.7000 -48.8000 TS 55 0 15 278
1956222N13313 1956 71 NA NA BETSY 1956-08-09 15:00:00 TS 13.8072 -49.5150 main 1018 997 P_____________ AL031956 13.8072 -49.5150 TS 57 0 14 278
1956222N13313 1956 71 NA NA BETSY 1956-08-09 18:00:00 TS 13.9000 -50.2000 60 hurdat_atl main 997 970 O_____________ hurdat_atl AL031956 13.9000 -50.2000 TS 60 0 14 276
1956222N13313 1956 71 NA NA BETSY 1956-08-09 21:00:00 TS 13.9573 -50.9001 main 976 950 P_____________ AL031956 13.9573 -50.9001 TS 62 0 14 274
1956222N13313 1956 71 NA NA BETSY 1956-08-10 00:00:00 TS 14.0000 -51.6000 65 hurdat_atl main 950 930 O_____________ hurdat_atl AL031956 14.0000 -51.6000 HU 65 1 14 274
1956222N13313 1956 71 NA NA BETSY 1956-08-10 03:00:00 TS 14.0422 -52.2926 main 930 927 P_____________ AL031956 14.0422 -52.2926 HU 67 1 14 274
1956222N13313 1956 71 NA NA BETSY 1956-08-10 06:00:00 TS 14.1000 -53.0000 70 hurdat_atl main 927 884 O_____________ hurdat_atl AL031956 14.1000 -53.0000 HU 70 1 14 275
1956222N13313 1956 71 NA NA BETSY 1956-08-10 09:00:00 TS 14.1773 -53.7426 main 884 812 P_____________ AL031956 14.1773 -53.7426 HU 75 1 15 278
1956222N13313 1956 71 NA NA BETSY 1956-08-10 12:00:00 TS 14.3000 -54.5000 80 hurdat_atl main 812 759 O_____________ hurdat_atl AL031956 14.3000 -54.5000 HU 80 1 15 282
1956222N13313 1956 71 NA NA BETSY 1956-08-10 15:00:00 TS 14.4922 -55.2424 main 759 703 P_____________ AL031956 14.4922 -55.2424 HU 85 2 15 285
1956222N13313 1956 71 NA NA BETSY 1956-08-10 18:00:00 TS 14.7000 -56.0000 90 979 hurdat_atl main 703 654 O_____________ hurdat_atl AL031956 14.7000 -56.0000 HU 90 979 2 16 284
1956222N13313 1956 71 NA NA BETSY 1956-08-10 21:00:00 TS 14.8649 -56.8001 main 654 606 P_____________ AL031956 14.8649 -56.8001 HU 90 2 16 281
1956222N13313 1956 71 NA NA BETSY 1956-08-11 00:00:00 TS 15.0000 -57.6000 90 hurdat_atl main 606 573 O_____________ hurdat_atl AL031956 15.0000 -57.6000 HU 90 2 15 279
1956222N13313 1956 71 NA NA BETSY 1956-08-11 03:00:00 TS 15.0998 -58.3727 main 567 544 P_____________ AL031956 15.0998 -58.3727 HU 90 2 15 278
1956222N13313 1956 71 NA NA BETSY 1956-08-11 06:00:00 TS 15.2000 -59.1000 90 hurdat_atl main 544 532 O_____________ hurdat_atl AL031956 15.2000 -59.1000 HU 90 2 14 280
1956222N13313 1956 71 NA NA BETSY 1956-08-11 09:00:00 TS 15.3271 -59.7577 main 531 531 P_____________ AL031956 15.3271 -59.7577 HU 90 2 13 283
1956222N13313 1956 71 NA CS BETSY 1956-08-11 12:00:00 TS 15.5000 -60.4000 90 hurdat_atl main 541 540 O_____________ hurdat_atl AL031956 15.5000 -60.4000 HU 90 2 14 288
1956222N13313 1956 71 NA CS BETSY 1956-08-11 15:00:00 TS 15.7348 -61.0925 main 554 473 P_____________ AL031956 15.7348 -61.0925 HU 90 2 14 290
1956222N13313 1956 71 NA CS BETSY 1956-08-11 18:00:00 TS 16.0000 -61.8000 90 979 hurdat_atl main 473 398 O_____________ hurdat_atl AL031956 16.0000 -61.8000 HU 90 979 2 15 290
1956222N13313 1956 71 NA CS BETSY 1956-08-11 21:00:00 TS 16.2423 -62.5077 main 398 317 P_____________ AL031956 16.2423 -62.5077 HU 87 2 14 290
1956222N13313 1956 71 NA CS BETSY 1956-08-12 00:00:00 TS 16.5000 -63.2000 85 hurdat_atl main 317 246 O_____________ hurdat_atl AL031956 16.5000 -63.2000 HU 85 2 14 293
1956222N13313 1956 71 NA CS BETSY 1956-08-12 03:00:00 TS 16.7772 -63.8504 main 238 169 P_____________ AL031956 16.7772 -63.8504 HU 85 2 14 296
1956222N13313 1956 71 NA CS BETSY 1956-08-12 06:00:00 TS 17.1000 -64.5000 85 hurdat_atl main 169 84 O_____________ hurdat_atl AL031956 17.1000 -64.5000 HU 85 2 15 299
1956222N13313 1956 71 NA CS BETSY 1956-08-12 09:00:00 TS 17.4773 -65.1927 main 84 11 P_____________ AL031956 17.4773 -65.1927 HU 85 2 16 301
1956222N13313 1956 71 NA CS BETSY 1956-08-12 12:00:00 TS 17.9000 -65.9000 85 981 hurdat_atl main 11 0 O_____________ hurdat_atl AL031956 17.9000 -65.9000 HU 85 981 2 16 303
1956222N13313 1956 71 NA NA BETSY 1956-08-12 15:00:00 TS 18.3347 -66.6004 main 0 0 P_____________ AL031956 18.3347 -66.6004 HU 82 1 16 304
1956222N13313 1956 71 NA NA BETSY 1956-08-12 18:00:00 TS 18.8000 -67.3000 80 hurdat_atl main 44 44 O_____________ hurdat_atl AL031956 18.8000 -67.3000 HU 80 1 16 305
1956222N13313 1956 71 NA NA BETSY 1956-08-12 21:00:00 TS 19.2848 -68.0079 main 84 76 P_____________ AL031956 19.2848 -68.0079 HU 82 1 17 307
1956222N13313 1956 71 NA NA BETSY 1956-08-13 00:00:00 TS 19.8000 -68.7000 85 hurdat_atl main 84 79 O_____________ hurdat_atl AL031956 19.8000 -68.7000 HU 85 2 17 310
1956222N13313 1956 71 NA NA BETSY 1956-08-13 03:00:00 TS 20.3421 -69.3505 main 100 100 P_____________ AL031956 20.3421 -69.3505 HU 90 2 16 312
1956222N13313 1956 71 NA NA BETSY 1956-08-13 06:00:00 TS 20.9000 -70.0000 95 hurdat_atl main 138 138 O_____________ hurdat_atl AL031956 20.9000 -70.0000 HU 95 2 17 311
1956222N13313 1956 71 NA NA BETSY 1956-08-13 09:00:00 TS 21.4574 -70.7002 main 190 188 P_____________ AL031956 21.4574 -70.7002 HU 97 3 17 310
1956222N13313 1956 71 NA NA BETSY 1956-08-13 12:00:00 TS 22.0000 -71.4000 100 972 hurdat_atl main 188 169 O_____________ hurdat_atl AL031956 22.0000 -71.4000 HU 100 972 3 16 310
1956222N13313 1956 71 NA NA BETSY 1956-08-13 15:00:00 TS 22.5072 -72.0656 main 172 172 P_____________ AL031956 22.5072 -72.0656 HU 100 3 16 310
1956222N13313 1956 71 NA NA BETSY 1956-08-13 18:00:00 TS 23.0000 -72.7000 100 hurdat_atl main 203 203 O_____________ hurdat_atl AL031956 23.0000 -72.7000 HU 100 3 15 311
1956222N13313 1956 71 NA NA BETSY 1956-08-13 21:00:00 TS 23.5073 -73.3153 main 257 257 P_____________ AL031956 23.5073 -73.3153 HU 100 3 15 312
1956222N13313 1956 71 NA NA BETSY 1956-08-14 00:00:00 TS 24.0000 -73.9000 100 hurdat_atl main 321 321 O_____________ hurdat_atl AL031956 24.0000 -73.9000 HU 100 3 14 312
1956222N13313 1956 71 NA NA BETSY 1956-08-14 03:00:00 TS 24.4648 -74.4654 main 323 276 P_____________ AL031956 24.4648 -74.4654 HU 102 3 13 312
1956222N13313 1956 71 NA NA BETSY 1956-08-14 06:00:00 TS 24.9000 -75.0000 105 hurdat_atl main 276 239 O_____________ hurdat_atl AL031956 24.9000 -75.0000 HU 105 3 13 311
1956222N13313 1956 71 NA NA BETSY 1956-08-14 09:00:00 TS 25.3074 -75.5303 main 239 210 P_____________ AL031956 25.3074 -75.5303 HU 105 3 12 312
1956222N13313 1956 71 NA NA BETSY 1956-08-14 12:00:00 TS 25.7000 -76.0000 105 960 hurdat_atl main 210 189 O_____________ hurdat_atl AL031956 25.7000 -76.0000 HU 105 960 3 11 315
1956222N13313 1956 71 NA NA BETSY 1956-08-14 15:00:00 TS 26.1074 -76.4100 main 195 193 P_____________ AL031956 26.1074 -76.4100 HU 102 962 3 10 322
1956222N13313 1956 71 NA NA BETSY 1956-08-14 18:00:00 TS 26.5000 -76.7000 100 hurdat_atl main 203 203 I_____________ hurdat_atl AL031956 26.5000 -76.7000 HU 100 964 3 9 333
1956222N13313 1956 71 NA NA BETSY 1956-08-14 21:00:00 TS 26.8648 -76.8454 main 234 229 P_____________ AL031956 26.8648 -76.8454 HU 95 966 2 7 346
1956222N13313 1956 71 NA NA BETSY 1956-08-15 00:00:00 TS 27.2000 -76.9000 90 968 hurdat_atl main 258 258 O_____________ hurdat_atl AL031956 27.2000 -76.9000 HU 90 968 2 7 349
1956222N13313 1956 71 NA NA BETSY 1956-08-15 03:00:00 TS 27.5150 -76.9874 main 285 285 P_____________ AL031956 27.5150 -76.9874 HU 90 966 2 6 352
1956222N13313 1956 71 NA NA BETSY 1956-08-15 06:00:00 TS 27.8000 -77.0000 90 hurdat_atl main 316 316 I_____________ hurdat_atl AL031956 27.8000 -77.0000 HU 90 965 2 6 8
1956222N13313 1956 71 NA NA BETSY 1956-08-15 09:00:00 TS 28.0575 -76.8950 main 338 338 P_____________ AL031956 28.0575 -76.8950 HU 92 964 2 6 28
1956222N13313 1956 71 NA NA BETSY 1956-08-15 12:00:00 TS 28.3000 -76.7000 95 963 hurdat_atl main 364 364 O_____________ hurdat_atl AL031956 28.3000 -76.7000 HU 95 963 2 6 38
1956222N13313 1956 71 NA NA BETSY 1956-08-15 15:00:00 TS 28.5500 -76.4650 main 390 390 P_____________ AL031956 28.5500 -76.4650 HU 95 2 7 41
1956222N13313 1956 71 NA NA BETSY 1956-08-15 18:00:00 TS 28.8000 -76.2000 95 hurdat_atl main 420 420 O_____________ hurdat_atl AL031956 28.8000 -76.2000 HU 95 2 7 43
1956222N13313 1956 71 NA NA BETSY 1956-08-15 21:00:00 TS 29.0425 -75.9498 main 451 451 P_____________ AL031956 29.0425 -75.9498 HU 92 2 7 41
1956222N13313 1956 71 NA NA BETSY 1956-08-16 00:00:00 TS 29.3000 -75.7000 90 hurdat_atl main 475 475 O_____________ hurdat_atl AL031956 29.3000 -75.7000 HU 90 2 7 38
1956222N13313 1956 71 NA NA BETSY 1956-08-16 03:00:00 TS 29.5697 -75.4794 main 500 500 P_____________ AL031956 29.5697 -75.4794 HU 85 2 7 36
1956222N13313 1956 71 NA NA BETSY 1956-08-16 06:00:00 TS 29.9000 -75.2000 80 973 hurdat_atl main 518 501 O_____________ hurdat_atl AL031956 29.9000 -75.2000 HU 80 973 1 9 40
1956222N13313 1956 71 NA NA BETSY 1956-08-16 09:00:00 TS 30.2901 -74.7796 main 501 480 P_____________ AL031956 30.2901 -74.7796 HU 82 1 12 41
1956222N13313 1956 71 NA NA BETSY 1956-08-16 12:00:00 TS 30.8000 -74.3000 85 hurdat_atl main 480 440 O_____________ hurdat_atl AL031956 30.8000 -74.3000 HU 85 2 14 34
1956222N13313 1956 71 NA NA BETSY 1956-08-16 15:00:00 TS 31.4548 -73.8570 main 430 400 P_____________ AL031956 31.4548 -73.8570 HU 90 2 16 29
1956222N13313 1956 71 NA NA BETSY 1956-08-16 18:00:00 TS 32.2000 -73.4000 95 hurdat_atl main 400 376 O_____________ hurdat_atl AL031956 32.2000 -73.4000 HU 95 2 17 28
1956222N13313 1956 71 NA NA BETSY 1956-08-16 21:00:00 TS 32.9497 -72.9217 main 384 366 P_____________ AL031956 32.9497 -72.9217 HU 97 3 17 29
1956222N13313 1956 71 NA NA BETSY 1956-08-17 00:00:00 TS 33.7000 -72.4000 100 954 hurdat_atl main 366 360 O_____________ hurdat_atl AL031956 33.7000 -72.4000 HU 100 954 3 17 32
1956222N13313 1956 71 NA NA BETSY 1956-08-17 03:00:00 TS 34.3997 -71.8286 main 370 365 P_____________ AL031956 34.3997 -71.8286 HU 97 3 17 35
1956222N13313 1956 71 NA NA BETSY 1956-08-17 06:00:00 TS 35.1000 -71.2000 95 hurdat_atl main 396 396 O_____________ hurdat_atl AL031956 35.1000 -71.2000 HU 95 2 18 37
1956222N13313 1956 71 NA NA BETSY 1956-08-17 09:00:00 TS 35.8498 -70.5145 main 449 449 P_____________ AL031956 35.8498 -70.5145 HU 90 2 19 37
1956222N13313 1956 71 NA NA BETSY 1956-08-17 12:00:00 TS 36.6000 -69.8000 85 hurdat_atl main 503 484 O_____________ hurdat_atl AL031956 36.6000 -69.8000 HU 85 2 18 38
1956222N13313 1956 71 NA NA BETSY 1956-08-17 15:00:00 TS 37.2992 -69.1201 main 487 433 P_____________ AL031956 37.2992 -69.1201 HU 80 1 18 38
1956222N13313 1956 71 NA NA BETSY 1956-08-17 18:00:00 TS 38.0000 -68.4000 75 hurdat_atl main 433 386 O_____________ hurdat_atl AL031956 38.0000 -68.4000 HU 75 1 19 40
1956222N13313 1956 71 NA NA BETSY 1956-08-17 21:00:00 TS 38.7568 -67.5940 main 381 363 P_____________ AL031956 38.7568 -67.5940 HU 72 1 20 41
1956222N13313 1956 71 NA NA BETSY 1956-08-18 00:00:00 TS 39.5000 -66.7000 70 hurdat_atl main 370 367 O_____________ hurdat_atl AL031956 39.5000 -66.7000 HU 70 1 20 44
1956222N13313 1956 71 NA NA BETSY 1956-08-18 03:00:00 TS 40.1934 -65.7659 main 367 303 P_____________ AL031956 40.1934 -65.7659 HU 67 1 20 50
1956222N13313 1956 71 NA NA BETSY 1956-08-18 06:00:00 TS 40.8000 -64.7000 65 hurdat_atl main 304 280 O_____________ hurdat_atl AL031956 40.8000 -64.7000 HU 65 1 20 57
1956222N13313 1956 71 NA NA BETSY 1956-08-18 09:00:00 TS 41.2924 -63.5097 main 285 285 P_____________ AL031956 41.2924 -63.5097 HU 62 0 21 65
1956222N13313 1956 71 NA NA BETSY 1956-08-18 12:00:00 TS 41.7000 -62.1000 60 hurdat_atl main 320 320 O_____________ hurdat_atl AL031956 41.7000 -62.1000 TS 60 0 24 71
1956222N13313 1956 71 NA NA BETSY 1956-08-18 15:00:00 TS 42.0873 -60.4248 main 344 344 P_____________ AL031956 42.0873 -60.4248 TS 57 0 27 75
1956222N13313 1956 71 NA NA BETSY 1956-08-18 18:00:00 TS 42.4000 -58.6000 55 hurdat_atl main 369 369 O_____________ hurdat_atl AL031956 42.4000 -58.6000 TS 55 0 27 79
1956222N13313 1956 71 NA NA BETSY 1956-08-18 21:00:00 TS 42.6285 -56.7829 main 439 438 P_____________ AL031956 42.6285 -56.7829 TS 55 0 27 81
1956222N13313 1956 71 NA NA BETSY 1956-08-19 00:00:00 ET 42.8000 -55.0000 55 hurdat_atl main 436 400 O_____________ hurdat_atl AL031956 42.8000 -55.0000 EX 55 -4 26 82
1956222N13313 1956 71 NA NA BETSY 1956-08-19 03:00:00 ET 42.9697 -53.3123 main 400 395 P_____________ AL031956 42.9697 -53.3123 EX 55 -4 24 83
1956222N13313 1956 71 NA NA BETSY 1956-08-19 06:00:00 ET 43.1000 -51.7000 55 hurdat_atl main 406 406 O_____________ hurdat_atl AL031956 43.1000 -51.7000 EX 55 -4 23 85
1956222N13313 1956 71 NA NA BETSY 1956-08-19 09:00:00 ET 43.1760 -50.1646 main 445 445 P_____________ AL031956 43.1760 -50.1646 EX 55 -4 23 87
1956222N13313 1956 71 NA NA BETSY 1956-08-19 12:00:00 ET 43.2000 -48.6000 55 hurdat_atl main 522 522 O_____________ hurdat_atl AL031956 43.2000 -48.6000 EX 55 -4 24 90
1956222N13313 1956 71 NA NA BETSY 1956-08-19 15:00:00 ET 43.1711 -46.8796 main 621 621 P_____________ AL031956 43.1711 -46.8796 EX 52 -4 25 92
1956222N13313 1956 71 NA NA BETSY 1956-08-19 18:00:00 ET 43.1000 -45.1000 50 hurdat_atl main 742 742 O_____________ hurdat_atl AL031956 43.1000 -45.1000 EX 50 -4 26 93
1956222N13313 1956 71 NA NA BETSY 1956-08-19 21:00:00 ET 43.0211 -43.3210 main 869 869 P_____________ AL031956 43.0211 -43.3210 EX 47 -4 26 94
1956222N13313 1956 71 NA NA BETSY 1956-08-20 00:00:00 ET 42.9000 -41.6000 45 hurdat_atl main 993 993 O_____________ hurdat_atl AL031956 42.9000 -41.6000 EX 45 -4 25 97
1956222N13313 1956 71 NA NA BETSY 1956-08-20 03:00:00 ET 42.7146 -39.9371 main 1124 1124 P_____________ AL031956 42.7146 -39.9371 EX 42 -4 23 100
1956222N13313 1956 71 NA NA BETSY 1956-08-20 06:00:00 ET 42.5000 -38.5000 40 hurdat_atl main 1233 1233 O_____________ hurdat_atl AL031956 42.5000 -38.5000 EX 40 -4 19 104
1956222N13313 1956 71 NA NA BETSY 1956-08-20 09:00:00 ET 42.2731 -37.4557 main 1315 1315 P_____________ AL031956 42.2731 -37.4557 EX 37 -4 15 105
1956222N13313 1956 71 NA NA BETSY 1956-08-20 12:00:00 ET 42.1000 -36.5000 35 hurdat_atl main 1396 1396 O_____________ hurdat_atl AL031956 42.1000 -36.5000 EX 35 -4 17 99
1956222N13313 1956 71 NA NA BETSY 1956-08-20 15:00:00 ET 42.0209 -35.2508 main 1487 1487 P_____________ AL031956 42.0209 -35.2508 EX 32 -4 19 93
1956222N13313 1956 71 NA NA BETSY 1956-08-20 18:00:00 ET 42.0000 -34.0000 30 hurdat_atl main 1580 1580 O_____________ hurdat_atl AL031956 42.0000 -34.0000 EX 30 -4 18 91
1956222N13313 1956 71 NA NA BETSY 1956-08-20 21:00:00 ET 41.9922 -32.8881 main 1660 1660 P_____________ AL031956 41.9922 -32.8881 EX 27 -4 15 90
1956222N13313 1956 71 NA NA BETSY 1956-08-21 00:00:00 ET 42.0000 -32.0000 25 hurdat_atl main 1725 1725 O_____________ hurdat_atl AL031956 42.0000 -32.0000 EX 25 -4 11 90
1956222N13313 1956 71 NA NA BETSY 1956-08-21 03:00:00 ET 41.9985 -31.4251 main 1769 1769 P_____________ AL031956 41.9985 -31.4251 EX 25 -4 7 90
1956222N13313 1956 71 NA NA BETSY 1956-08-21 06:00:00 ET 42.0000 -31.0000 25 hurdat_atl main 1771 1738 O_____________ hurdat_atl AL031956 42.0000 -31.0000 EX 25 -4 7 90
1956222N13313 1956 71 NA NA BETSY 1956-08-21 09:00:00 ET 42.0011 -30.5250 main 1730 1690 P_____________ AL031956 42.0011 -30.5250 EX 25 -4 7 90
1956222N13313 1956 71 NA NA BETSY 1956-08-21 12:00:00 ET 42.0000 -30.0000 25 hurdat_atl main 1690 O_____________ hurdat_atl AL031956 42.0000 -30.0000 EX 25 -4 8 90

About IBTrACS Database

This database is a web-friendly format of International Best Track Archive for Climate Stewardship (IBTrACS), a global best track data archive curated by NOAA dating back to 1842.

Updated: 2021-12-03